Pagrindinis puslapis
METAR-TAF:

METAR-TAF

Oro uostai :

Phetčabunas, Tailandas

platuma: 16-40-33N, ilguma: 101-11-42E, Aukštis: 137 m

Dabartinis oras

Ataskaita buvo paskelbta 39 minutes, ne 09:00 UTC
Vėjas 4 kt iš Šiaurės/Šiaurės Rytų, svyruoja nuo Šiaurės Vakarų ir Rytų
Temperatūra 32°C
Drėgmė 41%
Slėgis 1010 hPa
Matomumas 10 km arba daugiau
Mažai debesys ne aukštis 2000 ft

METAR: VTPB 190900Z 03004KT 320V090 9999 FEW020 32/17 Q1010 NOSIG

Laikas: 16:39 (09:39 UTC)

Prognozė

Ataskaita buvo paskelbta 4 valandos ir 39 minutes, ne 05:00 UTC
Prognozė galioja nuo 19 metu 06 UTC su 20 metu 06 UTC
Vėjas 5 kt iš Šiaurės/Šiaurės Rytų
Matomumas 10 km arba daugiau
Mažai debesys ne aukštis 2000 ft

TAF: VTPB 190500Z 1906/2006 03005KT 9999 FEW020

Orai ataskaitas ir orų prognozės (METAR, TAF).

turimą stotys yra geltonos ir raudonos taškus žemėlapyje.

Perkelti pele per norėdami pamatyti stoties vardą.

Tada spustelėkite, norėdami matyti oro stebėjimo ir prognozės.

Norėdami pakeisti žemėlapį: spustelėkite ant žalios mygtukų su juodo kryžiaus žemyn,; žalią mygtuką su brūkšneliu, jei norite nutolinti; arba žalių rodyklių gretimoms žemėlapius.


METAR-TAF: